createdAt,value
2022-09-21T00:00:16.808Z,6.40
2022-09-21T00:02:46.694Z,6.70
2022-09-21T00:05:16.782Z,7.20
2022-09-21T00:07:47.450Z,6.20
2022-09-21T00:10:18.272Z,7.32
2022-09-21T00:12:50.393Z,6.32
2022-09-21T00:15:20.502Z,7.50
2022-09-21T00:17:50.616Z,7.10
2022-09-21T00:20:22.787Z,7.25
2022-09-21T00:22:53.851Z,6.43
2022-09-21T00:25:24.174Z,6.45
2022-09-21T00:27:55.171Z,6.65
2022-09-21T00:30:25.040Z,6.07
2022-09-21T00:32:57.540Z,6.85
2022-09-21T00:35:27.795Z,6.63
2022-09-21T00:37:58.077Z,6.05
2022-09-21T00:40:28.066Z,6.03
2022-09-21T00:42:59.175Z,6.32
2022-09-21T00:45:29.073Z,5.72
2022-09-21T00:47:59.168Z,6.07
2022-09-21T00:50:29.143Z,6.18
2022-09-21T00:53:00.648Z,5.32
2022-09-21T00:55:39.999Z,5.80
2022-09-21T00:58:12.782Z,5.50
2022-09-21T01:00:43.032Z,5.60
2022-09-21T01:03:15.448Z,5.35
2022-09-21T01:05:45.326Z,5.78
2022-09-21T01:08:18.054Z,5.15
2022-09-21T01:10:48.308Z,5.38
2022-09-21T01:13:36.671Z,5.00
2022-09-21T01:16:19.061Z,5.05
2022-09-21T01:18:55.061Z,5.47
2022-09-21T01:21:29.407Z,4.90
2022-09-21T01:24:08.410Z,4.97
2022-09-21T01:26:57.100Z,5.63
2022-09-21T01:29:31.417Z,5.50
2022-09-21T01:32:19.709Z,5.07
2022-09-21T01:34:56.162Z,5.47
2022-09-21T01:37:34.216Z,5.55
2022-09-21T01:40:05.969Z,5.40
2022-09-21T01:42:36.972Z,5.95
2022-09-21T01:45:08.836Z,6.00
2022-09-21T01:47:40.085Z,5.25
2022-09-21T01:50:12.103Z,5.45
2022-09-21T01:53:04.821Z,5.53
2022-09-21T01:55:38.089Z,5.38
2022-09-21T01:58:10.015Z,4.90
2022-09-21T02:00:41.875Z,5.40
2022-09-21T02:03:30.734Z,5.30
2022-09-21T02:06:01.372Z,5.75
2022-09-21T02:08:35.140Z,5.20
2022-09-21T02:11:06.327Z,5.10
2022-09-21T02:13:41.651Z,5.07
2022-09-21T02:16:13.866Z,5.30
2022-09-21T02:18:46.517Z,5.82
2022-09-21T02:21:44.581Z,4.95
2022-09-21T02:24:26.161Z,4.85
2022-09-21T02:27:19.004Z,5.63
2022-09-21T02:29:58.781Z,5.47
2022-09-21T02:32:29.019Z,4.57
2022-09-21T02:35:05.466Z,5.15
2022-09-21T02:38:04.772Z,4.90
2022-09-21T02:40:34.642Z,5.30
2022-09-21T02:43:17.650Z,4.60
2022-09-21T02:45:52.508Z,4.78
2022-09-21T02:48:25.263Z,4.93
2022-09-21T02:50:58.406Z,4.82
2022-09-21T02:53:34.941Z,5.25
2022-09-21T02:56:06.699Z,5.30
2022-09-21T02:58:57.173Z,4.78
2022-09-21T03:01:28.466Z,4.80
2022-09-21T03:03:58.356Z,4.93
2022-09-21T03:06:28.382Z,4.30
2022-09-21T03:08:59.640Z,4.43
2022-09-21T03:11:29.803Z,4.53
2022-09-21T03:13:59.683Z,4.28
2022-09-21T03:16:30.132Z,4.57
2022-09-21T03:19:01.096Z,4.47
2022-09-21T03:21:31.752Z,4.75
2022-09-21T03:24:01.754Z,4.75
2022-09-21T03:26:31.589Z,4.55
2022-09-21T03:29:01.462Z,5.38
2022-09-21T03:31:31.350Z,5.40
2022-09-21T03:34:01.349Z,4.97
2022-09-21T14:06:52.769Z,4.35
2022-09-21T14:09:35.406Z,3.80
2022-09-21T14:12:08.173Z,4.28
2022-09-21T14:14:39.858Z,3.50
2022-09-21T14:17:31.452Z,4.95
2022-09-21T14:20:02.731Z,4.15
2022-09-21T14:22:32.613Z,4.88
2022-09-21T14:25:20.950Z,4.45
2022-09-21T14:27:53.374Z,4.35
2022-09-21T14:30:28.942Z,4.35
2022-09-21T14:33:04.693Z,4.45
2022-09-21T14:35:36.118Z,4.32
2022-09-21T14:38:12.563Z,3.80
2022-09-21T14:40:45.156Z,4.72
2022-09-21T14:43:18.791Z,4.25
2022-09-21T14:46:03.377Z,4.65
2022-09-21T14:48:36.285Z,4.47
2022-09-21T14:51:32.987Z,3.85
2022-09-21T14:54:22.868Z,3.97
2022-09-21T14:56:58.871Z,4.20
2022-09-21T14:59:37.770Z,3.90
2022-09-21T15:02:27.342Z,3.92
2022-09-21T19:32:55.323Z,4.75
2022-09-21T19:35:35.044Z,4.82
2022-09-21T19:38:06.284Z,5.40
2022-09-21T19:40:37.716Z,4.80
2022-09-21T19:43:11.226Z,5.22
2022-09-21T19:45:56.517Z,5.57
2022-09-21T19:48:30.039Z,4.85
2022-09-21T19:51:00.535Z,4.95
2022-09-21T19:53:48.533Z,5.00
2022-09-21T19:56:37.627Z,4.68
2022-09-21T19:59:26.026Z,4.80
2022-09-21T20:01:58.944Z,4.63
2022-09-21T20:04:38.229Z,4.78
2022-09-21T20:07:11.437Z,4.90
2022-09-21T20:09:48.127Z,4.70
2022-09-21T20:12:24.817Z,4.65
2022-09-21T20:14:59.337Z,4.53
2022-09-21T20:17:40.848Z,4.82
2022-09-21T20:20:31.655Z,4.93
2022-09-21T20:23:01.924Z,4.82
2022-09-21T20:25:34.897Z,5.05
2022-09-21T20:28:06.750Z,5.07
2022-09-21T20:30:37.626Z,4.93
2022-09-21T20:33:09.345Z,5.03
2022-09-21T20:35:40.456Z,5.20
2022-09-21T20:38:10.583Z,5.57
2022-09-21T20:40:42.461Z,5.38
2022-09-21T20:43:13.314Z,5.30
2022-09-21T20:45:48.115Z,5.50
2022-09-21T20:48:18.120Z,5.20
2022-09-21T20:50:52.383Z,5.10
2022-09-21T20:53:22.291Z,4.78
2022-09-21T20:56:00.298Z,4.65
2022-09-21T20:58:30.545Z,4.80
2022-09-21T21:01:06.035Z,4.38
2022-09-21T21:03:36.146Z,4.40
2022-09-21T21:06:17.695Z,4.00
2022-09-21T21:08:47.825Z,4.07
2022-09-21T21:11:17.765Z,3.90
2022-09-21T21:13:49.058Z,4.22
2022-09-21T21:16:19.599Z,3.95
2022-09-21T21:18:49.512Z,3.90
2022-09-21T21:21:19.570Z,4.40
2022-09-21T21:24:11.542Z,4.28
2022-09-21T21:27:01.243Z,4.15
2022-09-21T21:29:31.494Z,4.50
2022-09-21T21:32:01.671Z,4.10
2022-09-21T21:34:31.635Z,4.60
2022-09-21T21:37:01.628Z,4.70
2022-09-21T21:39:32.093Z,5.35
2022-09-21T21:42:02.163Z,4.60
2022-09-21T21:44:32.145Z,4.30
2022-09-21T21:47:15.483Z,4.22
2022-09-21T21:49:52.291Z,4.65
2022-09-21T21:52:22.721Z,4.63
2022-09-21T21:54:52.611Z,5.00
2022-09-21T21:57:22.649Z,4.40
2022-09-21T21:59:52.967Z,4.53
2022-09-21T22:02:23.621Z,4.82
2022-09-21T22:04:54.273Z,5.00
2022-09-21T22:07:24.351Z,4.72
2022-09-21T22:09:55.398Z,4.93
2022-09-21T22:12:25.395Z,5.20
2022-09-21T22:14:55.284Z,5.40
2022-09-21T22:17:26.252Z,5.32
2022-09-21T22:19:57.336Z,5.38
2022-09-21T22:22:27.558Z,5.88
2022-09-21T22:24:58.588Z,4.78
2022-09-21T22:27:28.537Z,5.25
2022-09-21T22:29:58.902Z,4.82
2022-09-21T22:32:28.868Z,5.00
2022-09-21T22:34:59.151Z,4.75
2022-09-21T22:37:29.363Z,4.90
2022-09-21T22:39:59.246Z,4.25
2022-09-21T22:42:29.269Z,4.40
2022-09-21T22:44:59.176Z,4.68
2022-09-21T22:47:29.158Z,3.47
2022-09-21T22:49:59.818Z,3.10
2022-09-21T22:52:31.239Z,3.70
2022-09-21T22:55:01.132Z,2.47
2022-09-21T22:57:31.693Z,2.50
2022-09-21T23:00:01.668Z,2.60
2022-09-21T23:02:32.017Z,2.28
2022-09-21T23:05:01.952Z,2.47
2022-09-21T23:07:33.301Z,2.30
2022-09-21T23:10:03.229Z,2.30
2022-09-21T23:12:33.709Z,2.33
2022-09-21T23:15:04.007Z,2.67
2022-09-21T23:17:34.391Z,2.53
2022-09-21T23:20:05.120Z,2.25
2022-09-21T23:22:35.497Z,2.60
2022-09-21T23:25:06.612Z,2.40
2022-09-21T23:27:36.670Z,2.17
2022-09-21T23:30:06.707Z,1.98
2022-09-21T23:32:36.949Z,1.90
2022-09-21T23:35:07.105Z,1.70
2022-09-21T23:37:38.222Z,2.10
2022-09-21T23:40:08.937Z,2.00
2022-09-21T23:42:39.119Z,1.90
2022-09-21T23:45:09.269Z,1.95
2022-09-21T23:47:39.239Z,1.88
2022-09-21T23:50:09.398Z,1.80
2022-09-21T23:52:39.808Z,1.85
2022-09-21T23:55:10.262Z,2.08
2022-09-21T23:57:40.182Z,1.80
